Time;durP1;ratioP1;P1;durP2;ratioP2;P2;SDS_P1;SDS_P2;PMS_P1;PMS_P2;Temp;Humidity;BMP_temperature;BMP_pressure;BME280_temperature;BME280_humidity;BME280_pressure;Samples;Min_cycle;Max_cycle;Signal;HPM_P1;HPM_P2
2021/04/21 00:01:20;;;;;;;0.20;0.20;;;;;;;1.66;30.66;99592.22;5078773;28;20038;-59
2021/04/21 00:03:47;;;;;;;0.20;0.20;;;;;;;1.62;30.88;99601.66;5113964;28;20028;-58
2021/04/21 00:06:15;;;;;;;0.20;0.20;;;;;;;1.61;30.84;99594.56;5113634;28;20047;-58
2021/04/21 00:08:41;;;;;;;0.20;0.20;;;;;;;1.63;30.74;99601.50;5113839;28;20035;-58
2021/04/21 00:11:08;;;;;;;0.20;0.20;;;;;;;1.65;30.81;99599.50;5113918;28;20027;-57
2021/04/21 00:13:35;;;;;;;0.20;0.20;;;;;;;1.64;30.66;99596.97;5113550;28;20040;-59
2021/04/21 00:16:01;;;;;;;0.20;0.20;;;;;;;1.62;30.67;99601.66;5113693;28;20032;-59
2021/04/21 00:18:28;;;;;;;0.22;0.22;;;;;;;1.58;30.70;99598.44;5113533;28;20496;-57
2021/04/21 00:20:57;;;;;;;0.20;0.20;;;;;;;1.54;30.95;99597.88;5113491;28;20042;-58
2021/04/21 00:23:25;;;;;;;0.20;0.20;;;;;;;1.57;30.85;99596.72;5113755;28;20402;-58
2021/04/21 00:25:53;;;;;;;0.20;0.20;;;;;;;1.58;30.78;99604.69;5094765;28;20508;-57
2021/04/21 00:28:21;;;;;;;0.20;0.20;;;;;;;1.59;30.90;99602.84;5112661;28;20024;-59
2021/04/21 00:30:48;;;;;;;0.20;0.20;;;;;;;1.61;30.80;99606.25;5113718;28;20080;-59
2021/04/21 00:33:18;;;;;;;0.20;0.20;;;;;;;1.63;30.73;99615.03;5113527;28;20066;-58
2021/04/21 00:35:45;;;;;;;0.20;0.20;;;;;;;1.62;30.77;99616.06;5113214;28;20408;-59
2021/04/21 00:38:18;;;;;;;0.20;0.20;;;;;;;1.59;30.92;99621.81;5113173;28;20047;-59
2021/04/21 00:40:44;;;;;;;0.20;0.20;;;;;;;1.52;30.94;99628.84;5113575;28;20040;-60
2021/04/21 00:43:39;;;;;;;0.20;0.20;;;;;;;1.52;31.02;99620.72;5113184;28;20118;-58
2021/04/21 00:46:13;;;;;;;0.93;0.93;;;;;;;1.55;30.82;99626.66;5113100;28;20042;-58
2021/04/21 00:49:13;;;;;;;0.20;0.20;;;;;;;1.56;30.97;99628.38;5113323;28;20027;-59
2021/04/21 00:52:01;;;;;;;0.20;0.20;;;;;;;1.58;30.89;99629.03;5113070;28;20061;-58
2021/04/21 00:54:44;;;;;;;0.30;0.30;;;;;;;1.63;30.70;99628.56;5113377;28;20493;-58
2021/04/21 00:57:13;;;;;;;0.20;0.20;;;;;;;1.64;30.85;99624.88;5113097;28;20035;-59
2021/04/21 00:59:58;;;;;;;0.20;0.20;;;;;;;1.66;30.63;99622.84;5095067;28;20024;-58
2021/04/21 01:02:33;;;;;;;0.20;0.20;;;;;;;1.74;30.63;99622.91;5113306;28;20035;-57
2021/04/21 01:05:00;;;;;;;0.22;0.22;;;;;;;1.85;30.42;99627.22;5113521;28;20027;-60
2021/04/21 01:07:28;;;;;;;0.20;0.20;;;;;;;1.92;30.56;99628.28;5113269;28;20035;-59
2021/04/21 01:09:56;;;;;;;0.20;0.20;;;;;;;2.04;30.45;99634.28;5094940;28;20163;-59
2021/04/21 01:12:24;;;;;;;0.20;0.20;;;;;;;2.12;30.17;99628.09;5094634;28;20028;-59
2021/04/21 01:14:53;;;;;;;0.20;0.20;;;;;;;2.18;30.16;99632.84;5112661;28;20031;-60
2021/04/21 01:17:22;;;;;;;0.20;0.20;;;;;;;2.24;30.17;99640.34;5113032;28;20032;-59
2021/04/21 01:20:00;;;;;;;0.70;0.63;;;;;;;2.34;30.13;99642.94;5078146;28;20031;-61
2021/04/21 01:22:47;;;;;;;0.20;0.20;;;;;;;2.43;30.22;99639.25;5112595;28;20027;-59
2021/04/21 01:25:44;;;;;;;0.20;0.20;;;;;;;2.54;30.07;99648.13;5112486;28;20637;-61
2021/04/21 01:28:10;;;;;;;1.65;1.20;;;;;;;2.59;29.90;99646.63;5113220;28;20040;-59
2021/04/21 01:30:42;;;;;;;0.20;0.20;;;;;;;2.71;30.07;99654.44;5112685;28;20059;-59
2021/04/21 01:33:14;;;;;;;0.20;0.20;;;;;;;2.97;29.84;99659.78;5112630;28;20036;-58
2021/04/21 01:35:44;;;;;;;0.20;0.20;;;;;;;4.24;28.52;99649.50;5112720;28;20040;-59
2021/04/21 01:38:11;;;;;;;0.20;0.20;;;;;;;6.39;26.37;99651.72;5094775;28;20105;-59
2021/04/21 01:40:41;;;;;;;0.35;0.35;;;;;;;8.51;24.38;99656.09;5117112;28;20115;-58
2021/04/21 01:43:26;;;;;;;0.20;0.20;;;;;;;10.34;23.18;99645.22;5116846;28;20422;-60
2021/04/21 01:45:57;;;;;;;0.22;0.22;;;;;;;11.81;21.93;99651.22;5116311;28;20114;-58
2021/04/21 01:48:25;;;;;;;0.20;0.20;;;;;;;12.91;21.75;99658.94;5115114;28;20456;-59
2021/04/21 01:50:53;;;;;;;0.20;0.20;;;;;;;13.88;21.39;99654.47;5103735;28;20073;-59
2021/04/21 01:53:42;;;;;;;0.20;0.20;;;;;;;14.70;21.15;99650.97;5104610;28;20035;-61
2021/04/21 01:56:31;;;;;;;0.20;0.20;;;;;;;15.63;21.02;99652.06;5109025;28;20508;-60
2021/04/21 01:59:07;;;;;;;0.10;0.10;;;;;;;16.39;21.20;99649.84;5110430;28;20027;-59
2021/04/21 02:02:05;;;;;;;0.10;0.10;;;;;;;17.08;20.68;99654.19;5113090;28;20019;-58
2021/04/21 02:04:47;;;;;;;0.10;0.10;;;;;;;17.84;20.63;99647.88;5024934;28;20038;-59
2021/04/21 02:07:31;;;;;;;0.10;0.10;;;;;;;18.51;20.62;99651.25;5028435;28;20161;-58
2021/04/21 02:10:15;;;;;;;0.17;0.17;;;;;;;19.12;20.47;99655.53;5028964;28;20045;-59
2021/04/21 02:12:53;;;;;;;;;;;;;;;19.71;20.28;99648.78;5030921;28;20132;-59
2021/04/21 02:15:43;;;;;;;0.10;0.10;;;;;;;20.12;20.25;99648.03;5030259;28;19936;-58
2021/04/21 02:18:46;;;;;;;0.10;0.10;;;;;;;20.54;20.58;99652.50;5028363;28;20037;-60
2021/04/21 02:21:28;;;;;;;0.68;0.68;;;;;;;21.06;20.30;99655.22;5026215;28;20092;-60
2021/04/21 02:24:12;;;;;;;0.10;0.10;;;;;;;21.49;20.25;99655.59;5031462;28;20034;-60
2021/04/21 02:26:51;;;;;;;0.10;0.10;;;;;;;21.84;20.29;99643.41;5031309;28;20128;-59
2021/04/21 02:29:40;;;;;;;0.10;0.10;;;;;;;22.21;20.37;99652.38;5029249;28;20033;-63
2021/04/21 02:32:27;;;;;;;0.13;0.13;;;;;;;22.65;20.32;99659.03;5023701;28;20041;-60
2021/04/21 02:35:00;;;;;;;0.10;0.10;;;;;;;22.93;20.04;99665.75;5033437;28;20041;-60
2021/04/21 02:38:04;;;;;;;0.10;0.10;;;;;;;23.31;20.28;99663.09;5033060;28;20068;-59
2021/04/21 02:40:54;;;;;;;0.10;0.10;;;;;;;23.81;20.02;99665.53;4975065;28;20527;-59
2021/04/21 02:43:36;;;;;;;0.10;0.10;;;;;;;24.25;19.92;99669.13;4996487;28;20546;-59
2021/04/21 02:46:17;;;;;;;0.10;0.10;;;;;;;24.60;19.77;99669.66;5013420;28;20037;-58
2021/04/21 02:49:10;;;;;;;0.10;0.10;;;;;;;25.02;19.39;99664.97;5013375;28;20037;-61
2021/04/21 02:51:46;;;;;;;0.10;0.10;;;;;;;25.25;19.27;99677.19;5012429;28;20033;-59
2021/04/21 02:54:20;;;;;;;0.10;0.10;;;;;;;25.47;19.65;99675.63;5012477;28;20029;-58
2021/04/21 02:57:10;;;;;;;0.10;0.10;;;;;;;25.93;19.50;99677.44;5012513;28;20096;-60
2021/04/21 03:00:05;;;;;;;0.10;0.10;;;;;;;26.22;19.26;99679.03;5012758;28;20038;-58
2021/04/21 03:02:45;;;;;;;0.10;0.10;;;;;;;26.67;19.47;99684.69;4957290;28;20094;-60
2021/04/21 03:05:23;;;;;;;0.15;0.15;;;;;;;26.89;19.26;99681.03;4973970;28;20041;-59
2021/04/21 03:08:27;;;;;;;0.10;0.10;;;;;;;27.12;19.30;99680.13;4973988;28;20043;-59
2021/04/21 03:11:09;;;;;;;0.08;0.08;;;;;;;27.47;19.09;99683.94;4958973;28;20046;-60
2021/04/21 03:13:42;;;;;;;0.10;0.10;;;;;;;27.69;18.95;99685.84;4975254;28;20070;-59
2021/04/21 03:16:12;;;;;;;0.10;0.10;;;;;;;27.93;19.14;99685.41;5017355;28;20049;-59
2021/04/21 03:18:42;;;;;;;0.10;0.10;;;;;;;28.07;19.13;99678.78;5035039;28;20149;-59
2021/04/21 03:21:20;;;;;;;0.47;0.47;;;;;;;28.80;18.54;99680.94;5052694;28;20124;-59
2021/04/21 03:23:50;;;;;;;0.10;0.10;;;;;;;29.44;18.42;99680.03;5051278;28;20514;-58
2021/04/21 03:26:20;;;;;;;3.20;0.75;;;;;;;29.48;18.39;99675.34;5045930;28;20470;-59
2021/04/21 03:28:51;;;;;;;0.32;0.32;;;;;;;29.59;18.59;99670.13;5051269;28;20033;-59
2021/04/21 03:31:19;;;;;;;0.10;0.10;;;;;;;29.76;18.48;99674.88;5048648;28;20029;-59
2021/04/21 03:33:48;;;;;;;0.52;0.52;;;;;;;29.90;18.44;99674.63;5019802;28;20133;-59
2021/04/21 03:36:17;;;;;;;0.22;0.22;;;;;;;30.11;18.52;99676.63;5032195;28;20384;-60
2021/04/21 03:38:45;;;;;;;1.25;0.43;;;;;;;30.38;18.77;99678.91;5045558;28;20127;-59
2021/04/21 03:41:11;;;;;;;2.47;0.60;;;;;;;30.56;18.48;99685.25;5094006;28;20375;-60
2021/04/21 03:43:39;;;;;;;0.38;0.38;;;;;;;30.60;18.48;99684.59;5093893;28;20028;-59
2021/04/21 03:46:05;;;;;;;1.45;0.68;;;;;;;30.60;18.34;99690.25;5093689;28;20089;-59
2021/04/21 03:48:32;;;;;;;0.20;0.20;;;;;;;30.63;18.50;99690.38;5093992;28;20035;-58
2021/04/21 03:50:59;;;;;;;0.52;0.52;;;;;;;30.69;18.53;99679.66;5093860;28;20493;-59
2021/04/21 03:53:30;;;;;;;0.10;0.10;;;;;;;30.73;18.48;99672.94;5093971;28;20077;-58
2021/04/21 03:55:57;;;;;;;0.63;0.63;;;;;;;30.81;18.44;99684.53;5075387;28;20458;-59
2021/04/21 03:58:25;;;;;;;0.20;0.20;;;;;;;30.96;18.44;99672.50;5094022;28;20067;-58
2021/04/21 04:00:57;;;;;;;0.15;0.15;;;;;;;31.16;18.30;99667.16;5093497;28;20035;-59
2021/04/21 04:03:28;;;;;;;0.13;0.13;;;;;;;31.36;18.16;99671.91;5093131;28;20493;-59
2021/04/21 04:06:10;;;;;;;0.20;0.20;;;;;;;31.65;18.16;99678.53;5093111;28;20036;-59
2021/04/21 04:08:45;;;;;;;0.43;0.43;;;;;;;31.67;18.13;99681.84;5093177;28;20043;-58
2021/04/21 04:11:15;;;;;;;0.10;0.10;;;;;;;31.76;18.11;99684.56;5093715;28;20031;-59
2021/04/21 04:13:45;;;;;;;0.15;0.15;;;;;;;31.82;17.94;99690.81;5093555;28;20490;-59
2021/04/21 04:16:15;;;;;;;0.30;0.30;;;;;;;31.86;18.21;99680.38;5093965;28;20473;-58
2021/04/21 04:18:43;;;;;;;0.98;0.40;;;;;;;31.95;17.87;99687.59;5093104;28;20039;-59
2021/04/21 04:21:11;;;;;;;0.25;0.25;;;;;;;31.92;18.08;99687.47;5100641;28;20034;-60
2021/04/21 04:23:40;;;;;;;0.32;0.32;;;;;;;31.79;18.19;99687.50;5094213;28;20485;-59
2021/04/21 04:26:07;;;;;;;0.20;0.20;;;;;;;30.10;19.05;99698.47;5113635;28;20055;-61
2021/04/21 04:28:34;;;;;;;0.90;0.60;;;;;;;27.42;21.01;99690.56;5113389;28;20031;-60
2021/04/21 04:31:05;;;;;;;1.10;0.93;;;;;;;24.99;23.10;99702.13;5113809;28;20028;-59
2021/04/21 04:33:31;;;;;;;3.25;1.05;;;;;;;22.90;24.29;99713.94;5113195;28;20103;-60
2021/04/21 04:35:58;;;;;;;1.02;0.88;;;;;;;21.07;25.71;99709.94;5113328;28;20023;-61
2021/04/21 04:38:25;;;;;;;0.20;0.20;;;;;;;19.71;26.50;99712.03;5104076;28;20391;-59
2021/04/21 04:40:52;;;;;;;4.65;0.32;;;;;;;18.55;27.09;99716.34;5074824;28;20024;-60
2021/04/21 04:43:22;;;;;;;1.35;0.75;;;;;;;17.61;27.17;99715.66;5092576;28;20073;-60
2021/04/21 04:45:57;;;;;;;2.35;0.88;;;;;;;16.86;27.22;99717.09;5092595;28;20036;-59
2021/04/21 04:48:33;;;;;;;1.48;1.15;;;;;;;16.36;26.95;99716.03;5093074;28;20104;-59
2021/04/21 04:51:01;;;;;;;0.35;0.35;;;;;;;16.00;26.65;99713.44;5092838;28;20028;-63
2021/04/21 04:53:29;;;;;;;4.57;0.68;;;;;;;15.68;26.43;99716.69;5092736;28;20054;-59
2021/04/21 04:55:56;;;;;;;0.73;0.60;;;;;;;15.41;26.06;99720.03;5074260;28;20087;-63
2021/04/21 04:58:25;;;;;;;0.30;0.30;;;;;;;15.11;26.03;99714.66;5092785;28;20031;-64
2021/04/21 05:00:55;;;;;;;0.22;0.22;;;;;;;14.82;25.70;99722.84;5093178;28;20028;-58
2021/04/21 05:03:27;;;;;;;0.47;0.40;;;;;;;14.54;25.79;99715.25;5092918;28;20178;-59
2021/04/21 05:05:55;;;;;;;0.17;0.17;;;;;;;14.31;25.73;99716.91;5092671;28;20032;-58
2021/04/21 05:08:25;;;;;;;0.50;0.50;;;;;;;14.04;25.62;99710.09;5092716;28;20409;-60
2021/04/21 05:11:09;;;;;;;0.38;0.38;;;;;;;13.82;25.48;99716.16;5092039;28;20115;-59
2021/04/21 05:13:52;;;;;;;0.10;0.10;;;;;;;13.65;25.34;99713.22;5094065;28;20028;-60
2021/04/21 05:16:24;;;;;;;0.20;0.20;;;;;;;13.61;24.86;99714.75;5097359;28;20371;-59
2021/04/21 05:19:21;;;;;;;1.25;0.75;;;;;;;13.54;24.92;99717.56;5096490;28;20277;-60
2021/04/21 05:22:22;;;;;;;0.20;0.20;;;;;;;13.46;24.72;99720.66;5096767;28;20047;-59
2021/04/21 05:25:14;;;;;;;1.27;0.90;;;;;;;13.34;24.65;99723.38;5094178;28;20040;-59
2021/04/21 05:27:58;;;;;;;0.50;0.50;;;;;;;13.26;24.46;99724.47;5078144;28;20051;-59
2021/04/21 05:30:55;;;;;;;0.70;0.47;;;;;;;13.19;24.24;99720.97;5096821;28;20058;-59
2021/04/21 05:33:45;;;;;;;0.10;0.10;;;;;;;13.13;24.16;99724.63;5096467;28;20032;-58
2021/04/21 05:36:29;;;;;;;0.20;0.20;;;;;;;13.00;24.23;99727.53;5096379;28;20032;-57
2021/04/21 05:39:10;;;;;;;0.20;0.20;;;;;;;12.79;24.11;99722.22;5107446;28;20551;-58
2021/04/21 05:42:13;;;;;;;0.10;0.10;;;;;;;12.65;24.30;99720.66;5098204;28;20134;-59
2021/04/21 05:45:10;;;;;;;1.55;0.45;;;;;;;12.69;24.06;99724.66;5117009;28;20032;-57
2021/04/21 05:47:50;;;;;;;0.55;0.55;;;;;;;12.77;23.96;99720.75;5116257;28;20032;-59
2021/04/21 05:50:53;;;;;;;0.82;0.82;;;;;;;12.81;23.66;99724.75;5116990;28;20459;-64
2021/04/21 05:53:39;;;;;;;1.20;0.60;;;;;;;12.75;23.78;99725.66;5116645;28;20039;-59
2021/04/21 05:56:23;;;;;;;1.13;0.55;;;;;;;12.75;23.52;99725.66;5013861;28;20141;-59
2021/04/21 05:59:41;;;;;;;2.53;1.27;;;;;;;12.80;23.41;99734.91;5013857;28;20084;-60
2021/04/21 06:02:07;;;;;;;0.93;0.93;;;;;;;12.79;23.57;99733.25;4936561;29;20052;-59
2021/04/21 06:04:33;;;;;;;0.30;0.30;;;;;;;12.75;23.68;99729.25;4936457;29;20466;-59
2021/04/21 06:07:10;;;;;;;1.17;1.13;;;;;;;12.76;23.40;99724.59;4936589;29;20099;-65
2021/04/21 06:09:37;;;;;;;0.93;0.80;;;;;;;12.68;23.47;99724.88;4936251;29;20438;-60
2021/04/21 06:12:11;;;;;;;0.40;0.40;;;;;;;12.67;23.50;99718.50;4936100;29;20494;-59
2021/04/21 06:14:37;;;;;;;0.20;0.20;;;;;;;12.67;23.44;99728.72;4936753;29;20047;-59
2021/04/21 06:17:04;;;;;;;1.70;1.58;;;;;;;12.59;23.30;99721.56;4936664;29;20068;-60
2021/04/21 06:19:29;;;;;;;0.20;0.20;;;;;;;12.59;23.36;99721.56;4936175;29;20046;-59
2021/04/21 06:21:55;;;;;;;0.85;0.85;;;;;;;12.67;23.33;99725.94;4932035;29;20028;-59
2021/04/21 06:24:25;;;;;;;0.43;0.43;;;;;;;12.74;23.02;99723.97;4914391;29;20071;-59
2021/04/21 06:26:50;;;;;;;0.10;0.10;;;;;;;12.76;23.00;99727.34;4916276;29;20075;-59
2021/04/21 06:29:16;;;;;;;1.33;0.45;;;;;;;12.76;23.19;99728.19;4917013;29;20079;-59
2021/04/21 06:31:50;;;;;;;0.47;0.47;;;;;;;12.76;22.94;99719.94;4916654;29;20036;-59
2021/04/21 06:34:16;;;;;;;;;;;;;;;12.79;22.95;99722.22;4972363;28;20516;-58
2021/04/21 06:36:47;;;;;;;0.20;0.20;;;;;;;12.83;23.00;99717.09;5063217;28;19956;-60
2021/04/21 06:39:17;;;;;;;0.20;0.20;;;;;;;12.83;22.79;99721.78;5074848;28;20087;-61
2021/04/21 06:41:44;;;;;;;1.20;0.30;;;;;;;12.77;22.83;99721.59;5074604;28;20079;-60
2021/04/21 06:44:10;;;;;;;0.40;0.40;;;;;;;12.72;23.00;99720.59;5074857;28;20434;-58
2021/04/21 06:46:36;;;;;;;0.40;0.40;;;;;;;12.69;23.03;99724.66;5074525;28;20025;-59
2021/04/21 06:49:03;;;;;;;0.43;0.43;;;;;;;12.72;22.98;99723.34;5075062;28;20029;-59
2021/04/21 06:51:32;;;;;;;0.63;0.63;;;;;;;12.68;23.10;99716.63;5074455;28;20038;-59
2021/04/21 06:53:59;;;;;;;0.20;0.20;;;;;;;12.66;22.85;99716.00;5074447;28;20024;-59
2021/04/21 06:56:31;;;;;;;0.10;0.10;;;;;;;12.70;22.76;99722.75;5074612;28;20036;-61
2021/04/21 06:58:58;;;;;;;0.85;0.50;;;;;;;12.71;22.93;99708.72;5056399;28;20039;-59
2021/04/21 07:01:26;;;;;;;0.47;0.40;;;;;;;12.76;22.73;99703.41;5074879;28;20513;-59
2021/04/21 07:03:53;;;;;;;0.13;0.13;;;;;;;12.79;22.78;99702.06;5074704;28;20095;-59
2021/04/21 07:06:23;;;;;;;0.10;0.10;;;;;;;12.74;22.71;99704.69;5074556;28;20428;-59
2021/04/21 07:08:49;;;;;;;0.47;0.47;;;;;;;12.75;22.82;99709.97;5056756;28;20122;-59
2021/04/21 07:11:15;;;;;;;0.10;0.10;;;;;;;12.80;22.82;99717.56;5074575;28;20502;-62
2021/04/21 07:13:45;;;;;;;0.30;0.30;;;;;;;12.85;22.69;99703.09;5074582;28;20039;-59
2021/04/21 07:16:19;;;;;;;0.75;0.75;;;;;;;12.85;22.60;99711.34;5074568;28;20156;-59
2021/04/21 07:19:09;;;;;;;0.13;0.13;;;;;;;12.82;22.62;99704.38;5074073;28;20040;-59
2021/04/21 07:21:36;;;;;;;0.20;0.20;;;;;;;12.77;22.64;99710.56;5073870;28;20032;-60
2021/04/21 07:24:04;;;;;;;0.17;0.17;;;;;;;12.73;22.94;99703.00;5073892;28;20117;-59
2021/04/21 07:26:32;;;;;;;0.10;0.10;;;;;;;12.73;22.68;99705.75;5073873;28;20573;-60
2021/04/21 07:28:58;;;;;;;0.20;0.20;;;;;;;12.74;22.74;99699.19;5074627;28;20024;-58
2021/04/21 07:31:24;;;;;;;0.10;0.10;;;;;;;12.79;22.61;99710.34;5089298;28;20051;-59
2021/04/21 07:33:50;;;;;;;0.10;0.10;;;;;;;12.85;22.58;99692.88;5079069;28;20036;-59
2021/04/21 07:36:22;;;;;;;0.10;0.10;;;;;;;12.92;22.37;99690.91;5093551;28;20080;-58
2021/04/21 07:39:07;;;;;;;0.20;0.20;;;;;;;12.96;22.50;99694.91;5093694;28;20055;-60
2021/04/21 07:41:38;;;;;;;0.10;0.10;;;;;;;13.03;22.54;99688.47;5094384;28;20047;-60
2021/04/21 07:44:29;;;;;;;0.20;0.20;;;;;;;13.09;22.47;99695.84;5094123;28;20040;-59
2021/04/21 07:47:15;;;;;;;0.10;0.10;;;;;;;13.06;22.36;99688.88;5094196;28;20032;-61
2021/04/21 07:49:46;;;;;;;0.10;0.10;;;;;;;13.05;22.42;99686.34;5094273;28;20508;-59
2021/04/21 07:52:25;;;;;;;0.10;0.10;;;;;;;13.10;22.50;99680.97;5093549;28;20027;-58
2021/04/21 07:55:13;;;;;;;0.10;0.10;;;;;;;13.12;22.29;99685.19;5093626;28;20032;-60
2021/04/21 07:57:40;;;;;;;0.17;0.17;;;;;;;13.13;22.29;99689.63;5093732;28;20039;-59
2021/04/21 08:00:09;;;;;;;1.63;0.40;;;;;;;13.07;22.21;99684.19;5093724;28;20036;-58
2021/04/21 08:02:36;;;;;;;0.10;0.10;;;;;;;13.02;22.39;99690.38;5090037;28;20472;-59
2021/04/21 08:05:09;;;;;;;0.40;0.40;;;;;;;12.97;22.56;99688.31;5092877;28;20038;-61
2021/04/21 08:07:41;;;;;;;0.10;0.10;;;;;;;12.95;22.56;99676.66;5092140;28;20067;-59
2021/04/21 08:10:21;;;;;;;0.20;0.20;;;;;;;12.94;22.47;99679.66;5091015;28;20536;-59
2021/04/21 08:12:48;;;;;;;0.70;0.55;;;;;;;12.96;22.34;99678.38;5095830;27;20112;-60
2021/04/21 08:15:14;;;;;;;0.10;0.10;;;;;;;13.01;22.38;99679.59;5083354;28;20078;-60
2021/04/21 08:17:55;;;;;;;0.20;0.20;;;;;;;13.02;22.32;99681.28;5086616;28;20500;-59
2021/04/21 08:20:33;;;;;;;0.43;0.43;;;;;;;13.09;22.34;99676.53;5085832;28;20028;-60
2021/04/21 08:23:05;;;;;;;0.10;0.10;;;;;;;13.16;22.10;99682.78;5100320;28;20040;-60
2021/04/21 08:25:31;;;;;;;0.20;0.20;;;;;;;13.18;22.00;99680.66;5091205;28;20024;-60
2021/04/21 08:27:58;;;;;;;0.82;0.82;;;;;;;13.15;22.18;99684.72;5084643;28;20519;-59
2021/04/21 08:30:26;;;;;;;0.10;0.10;;;;;;;13.09;22.13;99684.81;5091385;28;20056;-60
2021/04/21 08:32:52;;;;;;;0.20;0.20;;;;;;;13.02;22.29;99675.78;5084983;28;20562;-59
2021/04/21 08:35:19;;;;;;;0.10;0.10;;;;;;;13.03;22.32;99671.91;5067568;28;20064;-60
2021/04/21 08:37:45;;;;;;;0.10;0.10;;;;;;;13.06;22.19;99675.09;5057314;28;20032;-59
2021/04/21 08:40:15;;;;;;;0.10;0.10;;;;;;;13.12;22.32;99676.06;5072659;28;20490;-59
2021/04/21 08:42:42;;;;;;;0.10;0.10;;;;;;;13.17;21.94;99678.97;5090887;28;20032;-59
2021/04/21 08:45:10;;;;;;;0.30;0.30;;;;;;;13.20;22.14;99667.47;5072698;28;20482;-59
2021/04/21 08:47:39;;;;;;;0.10;0.10;;;;;;;13.25;22.19;99661.25;5090066;28;20046;-59
2021/04/21 08:50:05;;;;;;;0.10;0.10;;;;;;;13.26;21.95;99672.06;5086139;28;20028;-58
2021/04/21 08:52:42;;;;;;;0.47;0.47;;;;;;;13.28;22.20;99658.91;5089318;28;20039;-60
2021/04/21 08:55:12;;;;;;;0.40;0.40;;;;;;;13.36;21.96;99662.44;5088714;28;20038;-58
2021/04/21 08:57:39;;;;;;;0.10;0.10;;;;;;;13.36;21.76;99657.75;5089047;28;20028;-60
2021/04/21 09:00:06;;;;;;;0.10;0.10;;;;;;;13.36;21.88;99646.72;5090298;28;20051;-61
2021/04/21 09:02:33;;;;;;;0.10;0.10;;;;;;;13.39;21.88;99645.44;5087455;28;20107;-61
2021/04/21 09:05:02;;;;;;;0.32;0.32;;;;;;;13.43;22.00;99644.72;5072415;28;20023;-61
2021/04/21 09:07:28;;;;;;;0.17;0.17;;;;;;;13.47;22.00;99642.31;5084252;28;20162;-59
2021/04/21 09:09:58;;;;;;;0.30;0.30;;;;;;;13.48;21.82;99641.25;5090256;28;20114;-59
2021/04/21 09:12:25;;;;;;;1.08;0.90;;;;;;;13.47;21.98;99640.44;5080523;28;20490;-59
2021/04/21 09:14:51;;;;;;;2.00;0.35;;;;;;;13.52;22.15;99647.16;5069469;28;20598;-60
2021/04/21 09:17:20;;;;;;;0.10;0.10;;;;;;;13.59;22.06;99639.63;5089814;28;20032;-60
2021/04/21 09:19:46;;;;;;;0.10;0.10;;;;;;;13.63;21.69;99643.59;5088584;28;20031;-61
2021/04/21 09:22:13;;;;;;;0.10;0.10;;;;;;;13.66;21.97;99643.13;5090050;28;20107;-59
2021/04/21 09:24:40;;;;;;;0.55;0.30;;;;;;;13.69;22.06;99641.81;5083242;28;20028;-61
2021/04/21 09:27:33;;;;;;;0.10;0.10;;;;;;;13.76;21.97;99637.03;5084136;28;20070;-59
2021/04/21 09:30:21;;;;;;;1.98;0.68;;;;;;;13.81;21.99;99632.50;5081578;28;20036;-61
2021/04/21 09:32:52;;;;;;;0.22;0.22;;;;;;;13.87;21.97;99627.97;5090738;28;20040;-62
2021/04/21 09:35:25;;;;;;;0.55;0.55;;;;;;;13.94;21.85;99628.69;5090270;28;20032;-60
2021/04/21 09:38:02;;;;;;;0.10;0.10;;;;;;;13.99;21.61;99628.81;5088884;28;20035;-58
2021/04/21 09:40:40;;;;;;;0.10;0.10;;;;;;;14.02;21.59;99633.03;5091811;28;20043;-61
2021/04/21 09:43:08;;;;;;;0.25;0.25;;;;;;;14.02;21.84;99617.28;5090717;28;20036;-60
2021/04/21 09:45:41;;;;;;;0.20;0.20;;;;;;;14.09;21.91;99613.56;5097192;28;20122;-60
2021/04/21 09:48:19;;;;;;;0.10;0.10;;;;;;;14.12;21.67;99615.84;5099323;28;20031;-60
2021/04/21 09:50:58;;;;;;;0.10;0.10;;;;;;;14.14;21.85;99617.31;5099702;28;20113;-60
2021/04/21 09:53:38;;;;;;;4.18;0.30;;;;;;;14.18;21.73;99620.44;5097532;28;20035;-60
2021/04/21 09:56:12;;;;;;;0.10;0.10;;;;;;;14.20;21.58;99624.63;5100498;28;20036;-59
2021/04/21 09:58:44;;;;;;;1.27;0.30;;;;;;;14.20;21.76;99623.78;5099118;28;20111;-60
2021/04/21 10:01:20;;;;;;;0.20;0.20;;;;;;;14.23;21.43;99628.00;5103044;28;20036;-58
2021/04/21 10:04:03;;;;;;;0.10;0.10;;;;;;;14.24;21.66;99622.25;5097720;28;20056;-61
2021/04/21 10:06:29;;;;;;;0.10;0.10;;;;;;;14.27;21.61;99620.94;5105611;28;20515;-61
2021/04/21 10:08:55;;;;;;;0.10;0.10;;;;;;;14.28;21.72;99620.69;5084462;28;20036;-61
2021/04/21 10:11:20;;;;;;;0.10;0.10;;;;;;;14.32;21.80;99607.22;5101193;28;20458;-59
2021/04/21 10:13:49;;;;;;;0.20;0.20;;;;;;;14.37;21.47;99616.47;5106029;28;20031;-60
2021/04/21 10:16:16;;;;;;;0.10;0.10;;;;;;;14.44;21.63;99610.00;5069159;28;20446;-60
2021/04/21 10:18:42;;;;;;;0.55;0.55;;;;;;;14.49;21.55;99612.88;5093238;28;20032;-61
2021/04/21 10:21:10;;;;;;;0.10;0.10;;;;;;;14.48;21.52;99606.50;5104414;28;20022;-59
2021/04/21 10:23:36;;;;;;;0.10;0.10;;;;;;;14.46;21.72;99610.59;5103502;28;20470;-60
2021/04/21 10:26:09;;;;;;;0.10;0.10;;;;;;;14.47;21.58;99604.84;5103626;28;20058;-61
2021/04/21 10:28:37;;;;;;;0.27;0.27;;;;;;;14.47;21.58;99593.78;5101078;28;20032;-59
2021/04/21 10:31:05;;;;;;;0.10;0.10;;;;;;;14.46;21.69;99597.63;5068270;28;20271;-61
2021/04/21 10:33:32;;;;;;;0.20;0.20;;;;;;;14.48;21.73;99600.16;5093864;28;20070;-60
2021/04/21 10:35:58;;;;;;;0.22;0.22;;;;;;;14.51;21.61;99606.00;5084703;28;20024;-60
2021/04/21 10:38:26;;;;;;;0.10;0.10;;;;;;;14.51;21.47;99600.50;5104383;28;20541;-60
2021/04/21 10:41:34;;;;;;;0.10;0.10;;;;;;;14.49;21.82;99596.31;5103192;28;20027;-59
2021/04/21 10:44:16;;;;;;;4.00;0.73;;;;;;;14.48;21.69;99592.69;4982967;28;20072;-60
2021/04/21 10:47:08;;;;;;;0.10;0.10;;;;;;;14.50;21.62;99597.97;4978272;28;20046;-59
2021/04/21 10:49:34;;;;;;;0.25;0.25;;;;;;;14.54;21.73;99597.25;4976486;28;20038;-60
2021/04/21 10:52:12;;;;;;;0.20;0.20;;;;;;;14.62;21.68;99590.56;4980146;28;20142;-61
2021/04/21 10:54:38;;;;;;;0.10;0.10;;;;;;;14.71;21.34;99593.78;4979569;28;20026;-60
2021/04/21 10:57:22;;;;;;;0.40;0.40;;;;;;;14.81;21.46;99584.84;4982202;28;20034;-59
2021/04/21 11:00:07;;;;;;;0.52;0.52;;;;;;;14.88;21.77;99582.78;4979690;28;20089;-59
2021/04/21 11:02:45;;;;;;;0.65;0.65;;;;;;;14.86;21.34;99580.28;4973932;28;20405;-60
2021/04/21 11:05:20;;;;;;;0.10;0.10;;;;;;;14.81;21.26;99582.94;4980381;28;20038;-59
2021/04/21 11:08:08;;;;;;;0.20;0.20;;;;;;;14.81;21.51;99587.63;4980995;28;20061;-60
2021/04/21 11:10:50;;;;;;;0.10;0.10;;;;;;;14.77;21.32;99576.22;4902411;29;20402;-60
2021/04/21 11:13:40;;;;;;;0.20;0.20;;;;;;;14.74;21.43;99576.72;4905272;29;20048;-59
2021/04/21 11:16:12;;;;;;;0.10;0.10;;;;;;;14.72;21.40;99573.34;4832488;29;20110;-59
2021/04/21 11:18:39;;;;;;;0.20;0.20;;;;;;;14.73;21.49;99569.50;4908590;29;20043;-59
2021/04/21 11:21:12;;;;;;;0.40;0.35;;;;;;;14.78;21.42;99571.53;4925255;29;20043;-58
2021/04/21 11:24:08;;;;;;;0.40;0.40;;;;;;;14.86;21.46;99571.97;4917997;29;20465;-59
2021/04/21 11:26:36;;;;;;;0.17;0.17;;;;;;;14.89;21.42;99565.97;4912646;29;20100;-60
2021/04/21 11:29:24;;;;;;;0.35;0.35;;;;;;;14.90;21.54;99564.06;4915569;29;20047;-59
2021/04/21 11:31:51;;;;;;;0.20;0.20;;;;;;;14.91;21.46;99567.66;4916943;29;20406;-62
2021/04/21 11:34:29;;;;;;;0.10;0.10;;;;;;;14.92;21.60;99561.88;4914128;29;20048;-58
2021/04/21 11:37:04;;;;;;;0.20;0.20;;;;;;;14.91;21.60;99576.78;4911969;29;20071;-61
2021/04/21 11:39:44;;;;;;;0.10;0.10;;;;;;;14.91;21.60;99568.47;4921192;29;20098;-60
2021/04/21 11:42:28;;;;;;;0.10;0.10;;;;;;;14.94;21.55;99568.00;4918507;29;20132;-61
2021/04/21 11:45:03;;;;;;;0.10;0.10;;;;;;;14.98;21.52;99565.59;4914080;29;20079;-60
2021/04/21 11:47:31;;;;;;;0.32;0.32;;;;;;;14.99;21.61;99570.03;4940038;28;20050;-60
2021/04/21 11:50:25;;;;;;;0.10;0.10;;;;;;;15.02;21.30;99572.31;4943561;28;20400;-57
2021/04/21 11:52:58;;;;;;;0.10;0.10;;;;;;;15.03;21.46;99568.44;5012270;28;20044;-58
2021/04/21 11:55:30;;;;;;;0.10;0.10;;;;;;;14.99;21.62;99570.88;5091415;28;20508;-55
2021/04/21 11:58:06;;;;;;;0.10;0.10;;;;;;;15.01;21.31;99565.94;5089904;28;20032;-56
2021/04/21 12:00:47;;;;;;;0.10;0.10;;;;;;;15.02;21.37;99567.63;5082835;28;20038;-56
2021/04/21 12:03:18;;;;;;;0.32;0.32;;;;;;;15.06;21.24;99568.81;5083002;28;20536;-60
2021/04/21 12:05:46;;;;;;;0.10;0.10;;;;;;;15.07;21.22;99569.63;5085777;28;20036;-64
2021/04/21 12:08:12;;;;;;;0.25;0.25;;;;;;;15.03;21.39;99566.53;5084187;28;20028;-59